Nearby METAR Reports

 

KDLS - The Dalles, Oregon, USA
Distance from station: NNE 2mi, 3km
Updated: Thu, 30-May-2024 4:53am PDT
Clear
Clear
 Wind from SSW
Wind: SSW 5 mph, 7 km/h
Temperature: 46°F, 8°C
Wind Chill: 44°F, 7°C
Dew Point: 37°F, 3°C
Humidity: 71%
Barometer: 30.35 inHg, 1027.8 hPa
Clouds: Clear
Visibility: 10 miles, 16 km
2024/05/30 11:53 KDLS 301153Z AUTO 21004KT 10SM CLR 08/03 A3035 RMK AO2 SLP277 T00830033 10128 20078 53002
KTTD - Troutdale, Oregon, USA
Distance from station: W 60mi, 96km
Updated: Thu, 30-May-2024 4:53am PDT
Clear
Clear
 Wind from ENE
Wind: ENE 3 mph, 6 km/h
Temperature: 45°F, 7°C
Dew Point: 41°F, 5°C
Humidity: 87%
Barometer: 30.39 inHg, 1029.1 hPa
Clouds: Clear
Visibility: 10 miles, 16 km
2024/05/30 11:53 KTTD 301153Z AUTO 07003KT 10SM CLR 07/05 A3039 RMK AO2 SLP292 70003 T00720050 10133 20067 57003
 
KPDX - Portland, Oregon, USA
Distance from station: W 69mi, 111km
Updated: Thu, 30-May-2024 4:53am PDT
Few Clouds
Few Clouds
 Wind from NW
Wind: NW 8 mph, 13 km/h
Temperature: 48°F, 9°C
Wind Chill: 44°F, 7°C
Dew Point: 43°F, 6°C
Humidity: 82%
Barometer: 30.40 inHg, 1029.5 hPa
Clouds: Few Clouds
Visibility: 10 miles, 16 km
Cloud details: Few Clouds 10000 ft
2024/05/30 11:53 KPDX 301153Z 32007KT 10SM FEW100 09/06 A3040 RMK AO2 SLP291 70008 T00890061 10128 20083 58004 $
KVUO - Vancouver, Washington, USA
Distance from station: W 71mi, 114km
Updated: Thu, 30-May-2024 4:53am PDT
Clear
Clear
 Wind from calm
Wind: Calm
Temperature: 46°F, 8°C
Dew Point: 43°F, 6°C
Humidity: 87%
Barometer: 30.41 inHg, 1029.8 hPa
Clouds: Clear
Visibility: 10 miles, 16 km
2024/05/30 11:53 KVUO 301153Z AUTO 00000KT 10SM CLR 08/06 A3041 RMK AO2 SLP298 70013 T00830056 10122 20056 58003
 
KYKM - Yakima, Washington, USA
Distance from station: NNE 74mi, 120km
Updated: Thu, 30-May-2024 4:53am PDT
Clear
Clear
 Wind from W
Wind: W 7 mph, 11 km/h
Temperature: 37°F, 3°C
Wind Chill: 32°F, 0°C
Dew Point: 30°F, -1°C
Humidity: 75%
Barometer: 30.31 inHg, 1026.4 hPa
Clouds: Clear
Visibility: 10 miles, 16 km
2024/05/30 11:53 KYKM 301153Z AUTO 27006KT 10SM CLR 03/M01 A3031 RMK AO2 SLP266 T00331006 10117 20022 53002
KUAO - Aurora, Oregon, USA
Distance from station: WSW 80mi, 129km
Updated: Thu, 30-May-2024 4:53am PDT
Clear
Clear
 Wind from NNE
Wind: NNE 3 mph, 6 km/h
Temperature: 45°F, 7°C
Dew Point: 39°F, 4°C
Humidity: 81%
Barometer: 30.40 inHg, 1029.5 hPa
Clouds: Clear
Visibility: 10 miles, 16 km
2024/05/30 11:53 KUAO 301153Z AUTO 03003KT 10SM CLR 07/04 A3040 RMK AO2 SLP293 T00720044 10122 20072 56004
 
KSPB - Scappoose, Oregon, USA
Distance from station: W 82mi, 132km
Updated: Thu, 30-May-2024 4:53am PDT
Clear
Clear
 Wind from calm
Wind: Calm
Barometer: 30.40 inHg, 1029.5 hPa
Clouds: Clear
Visibility: 10 miles, 16 km
2024/05/30 11:53 KSPB 301153Z AUTO 00000KT 10SM CLR A3040 RMK AO2 SLPNO 70009 54000 $
KHIO - Hillsboro/Portld, Oregon, USA
Distance from station: W 85mi, 137km
Updated: Thu, 30-May-2024 4:53am PDT
Clear
Clear
 Wind from calm
Wind: Calm
Temperature: 39°F, 4°C
Dew Point: 37°F, 3°C
Humidity: 93%
Barometer: 30.40 inHg, 1029.5 hPa
Clouds: Clear
Visibility: 10 miles, 16 km
2024/05/30 11:53 KHIO 301153Z 00000KT 10SM CLR 04/03 A3040 RMK AO2 SLP293 70001 T00390033 10089 20039 58002
 
KKLS - Kelso Longveiw, Washington, USA
Distance from station: WNW 90mi, 145km
Updated: Thu, 30-May-2024 4:56am PDT
Few Clouds
Few Clouds
 Wind from calm
Wind: Calm
Temperature: 41°F, 5°C
Dew Point: 39°F, 4°C
Humidity: 93%
Barometer: 30.43 inHg, 1030.5 hPa
Clouds: Few Clouds
Visibility: 10 miles, 16 km
Cloud details: Few Clouds 600 ft
2024/05/30 11:56 KKLS 301156Z AUTO 00000KT 10SM FEW006 05/04 A3043 RMK AO2 SLP309 70009 T00500039 10111 20044 53003
KRDM - Redmond, Oregon, USA
Distance from station: S 93mi, 149km
Updated: Thu, 30-May-2024 4:56am PDT
Smoke, Clear
Smoke, Clear
 Wind from S
Wind: S 6 mph, 9 km/h
Temperature: 32°F, 0°C
Wind Chill: 26°F, -3°C
Dew Point: 27°F, -3°C
Humidity: 80%
Barometer: 30.31 inHg, 1026.4 hPa
Summary: Smoke
Clouds: Clear
Visibility: 10 miles, 16 km
2024/05/30 11:56 KRDM 301156Z AUTO 17005KT 10SM FU CLR 00/M03 A3031 RMK AO2 SLP266 T00001028 10078 20000 57002
 
KHRI - Hermiston, Oregon, USA
Distance from station: E 94mi, 151km
Updated: Thu, 30-May-2024 4:53am PDT
Clear
Clear
 Wind from SSE
Wind: SSE 3 mph, 6 km/h
Temperature: 43°F, 6°C
Dew Point: 36°F, 2°C
Humidity: 76%
Barometer: 30.32 inHg, 1026.8 hPa
Clouds: Clear
Visibility: 10 miles, 16 km
2024/05/30 11:53 KHRI 301153Z AUTO 16003KT 10SM CLR 06/02 A3032 RMK AO2 SLP268 T00610022 10122 20061 $
KMMV - Mcminnville, Oregon, USA
Distance from station: WSW 98mi, 158km
Updated: Thu, 30-May-2024 4:53am PDT
Clear
Clear
 Wind from calm
Wind: Calm
Temperature: 37°F, 3°C
Dew Point: 37°F, 3°C
Humidity: 100%
Barometer: 30.39 inHg, 1029.1 hPa
Clouds: Clear
Visibility: 10 miles, 16 km
2024/05/30 11:53 KMMV 301153Z AUTO 00000KT 10SM CLR 03/03 A3039 RMK AO2 SLP292 T00330028 10106 20028 58003
 
KSLE - Salem, Oregon, USA
Distance from station: WSW 100mi, 161km
Updated: Thu, 30-May-2024 4:56am PDT
Clear
Clear
 Wind from NE
Wind: NE 3 mph, 6 km/h
Temperature: 46°F, 8°C
Dew Point: 39°F, 4°C
Humidity: 76%
Barometer: 30.38 inHg, 1028.8 hPa
Clouds: Clear
Visibility: 10 miles, 16 km
2024/05/30 11:56 KSLE 301156Z AUTO 04003KT 10SM CLR 08/04 A3038 RMK AO2 SLP288 70001 T00830039 10133 20083 56003
KBDN - Bend, Oregon, USA
Distance from station: S 103mi, 166km
Updated: Thu, 30-May-2024 5:35am PDT
Clear
Clear
 Wind from SSW
Wind: SSW 6 mph, 9 km/h
Temperature: 36°F, 2°C
Wind Chill: 31°F, -1°C
Dew Point: 30°F, -1°C
Humidity: 81%
Barometer: 30.30 inHg, 1026.1 hPa
Clouds: Clear
Visibility: 10 miles, 16 km
2024/05/30 12:35 KBDN 301235Z AUTO 20005KT 10SM CLR 02/M01 A3030 RMK AO2
 
KELN - Ellensburg, Washington, USA
Distance from station: NNE 104mi, 168km
Updated: Thu, 30-May-2024 4:53am PDT
Clear
Clear
 Wind from NW
Wind: NW 16 mph, 26 km/h
Temperature: 45°F, 7°C
Wind Chill: 38°F, 3°C
Dew Point: 34°F, 1°C
Humidity: 66%
Barometer: 30.28 inHg, 1025.4 hPa
Clouds: Clear
Visibility: 10 miles, 16 km
2024/05/30 11:53 KELN 301153Z AUTO 32014KT 10SM CLR 07/01 A3028 RMK AO2 SLP258 T00670011 10078 20061 53001
KPSC - Pasco, Washington, USA
Distance from station: ENE 110mi, 177km
Updated: Thu, 30-May-2024 4:53am PDT
Clear
Clear
 Wind from calm
Wind: Calm
Temperature: 45°F, 7°C
Dew Point: 39°F, 4°C
Humidity: 81%
Barometer: 30.31 inHg, 1026.4 hPa
Clouds: Clear
Visibility: 10 miles, 16 km
2024/05/30 11:53 KPSC 301153Z AUTO 00000KT 10SM CLR 07/04 A3031 RMK AO2 SLP265 T00720039 10139 20050 52006
 
KPDT - Pendleton, Oregon, USA
Distance from station: E 114mi, 183km
Updated: Thu, 30-May-2024 4:53am PDT
Mostly cloudy
Mostly cloudy
 Wind from SE
Wind: SE 5 mph, 7 km/h
Temperature: 43°F, 6°C
Wind Chill: 40°F, 4°C
Dew Point: 36°F, 2°C
Humidity: 76%
Barometer: 30.32 inHg, 1026.8 hPa
Clouds: Mostly cloudy
Visibility: 10 miles, 16 km
Cloud details: Mostly cloudy 6500 ft
2024/05/30 11:53 KPDT 301153Z AUTO 13004KT 10SM BKN065 06/02 A3032 RMK AO2 SLP262 T00610017 10117 20061 51005
KCLS - Chehalis Central, Washington, USA
Distance from station: NW 115mi, 184km
Updated: Thu, 30-May-2024 5:35am PDT
Clear
Clear
 Wind from calm
Wind: Calm
Temperature: 39°F, 4°C
Dew Point: 39°F, 4°C
Humidity: 100%
Barometer: 30.42 inHg, 1030.1 hPa
Clouds: Clear
Visibility: 10 miles, 16 km
2024/05/30 12:35 KCLS 301235Z AUTO 00000KT 10SM CLR 04/04 A3042 RMK AO2
 
KPLU - Puyallup/Thun, Washington, USA
Distance from station: NNW 117mi, 188km
Updated: Thu, 30-May-2024 5:35am PDT
Overcast
Overcast
 Wind from calm
Wind: Calm
Temperature: 45°F, 7°C
Dew Point: 45°F, 7°C
Humidity: 100%
Barometer: 30.41 inHg, 1029.8 hPa
Clouds: Overcast
Visibility: 8 miles, 13 km
Cloud details: Overcast 4800 ft
2024/05/30 12:35 KPLU 301235Z AUTO 00000KT 8SM OVC048 07/07 A3041 RMK AO2
KCVO - Corvallis Muni A, Oregon, USA
Distance from station: WNW 167mi, 269km
Updated: Thu, 30-May-2024 4:56am PDT
Clear
Clear
 Wind from WNW
Wind: WNW 5 mph, 7 km/h
Temperature: 43°F, 6°C
Wind Chill: 40°F, 4°C
Dew Point: 39°F, 4°C
Humidity: 87%
Barometer: 30.39 inHg, 1029.1 hPa
Clouds: Clear
Visibility: 10 miles, 16 km
2024/05/30 11:56 KCVO 301156Z AUTO 29004KT 10SM CLR 06/04 A3039 RMK AO2 SLP292 T00560044 10117 20056 56004
 
KEUG - Eugene, Oregon, USA
Distance from station: W 193mi, 310km
Updated: Thu, 30-May-2024 4:54am PDT
Clear
Clear
 Wind from WNW
Wind: WNW 5 mph, 7 km/h
Temperature: 43°F, 6°C
Wind Chill: 40°F, 4°C
Dew Point: 39°F, 4°C
Humidity: 87%
Barometer: 30.37 inHg, 1028.4 hPa
Clouds: Clear
Visibility: 10 miles, 16 km
2024/05/30 11:54 KEUG 301154Z AUTO 30004KT 10SM CLR 06/04 A3037 RMK AO2 SLP285 T00560044 10117 20056 58004
KRBG - Roseburg, Oregon, USA
Distance from station: WSW 196mi, 315km
Updated: Thu, 30-May-2024 4:53am PDT
Clear
Clear
 Wind from NNE
Wind: NNE 3 mph, 6 km/h
Temperature: 50°F, 10°C
Dew Point: 43°F, 6°C
Humidity: 76%
Barometer: 30.34 inHg, 1027.4 hPa
Clouds: Clear
Visibility: 10 miles, 16 km
2024/05/30 11:53 KRBG 301153Z AUTO 03003KT 10SM CLR 10/06 A3034 RMK AO2 SLP273 T01000061 10150 20100 58003
 
KLKV - Lakeview, Oregon, USA
Distance from station: SSE 239mi, 385km
Updated: Thu, 30-May-2024 4:53am PDT
Clear
Clear
 Wind from NNW
Wind: NNW 17 mph, 28 km/h
Temperature: 37°F, 3°C
Wind Chill: 27°F, -3°C
Dew Point: 28°F, -2°C
Humidity: 70%
Barometer: 30.28 inHg, 1025.4 hPa
Clouds: Clear
Visibility: 10 miles, 16 km
2024/05/30 11:53 KLKV 301153Z AUTO 34015KT 10SM CLR 03/M02 A3028 RMK AO2 SLP247 7//// T00331017 10083 20033 58003
KMFR - Medford, Oregon, USA
Distance from station: WSW 241mi, 388km
Updated: Thu, 30-May-2024 4:53am PDT
Clear
Clear
 Wind from N
Wind: N 3 mph, 6 km/h
Temperature: 46°F, 8°C
Dew Point: 37°F, 3°C
Humidity: 71%
Barometer: 30.29 inHg, 1025.7 hPa
Clouds: Clear
Visibility: 10 miles, 16 km
2024/05/30 11:53 KMFR 301153Z AUTO 36003KT 10SM CLR 08/03 A3029 RMK AO2 SLP255 T00780033 10156 20078 58002
 
KBNO - Burns, Oregon, USA
Distance from station: ESE 249mi, 280km
Updated: Thu, 30-May-2024 4:53am PDT
Clear
Clear
 Wind from WNW
Wind: WNW 10 mph, 17 km/h
Temperature: 34°F, 1°C
Wind Chill: 26°F, -3°C
Dew Point: 27°F, -3°C
Humidity: 75%
Barometer: 30.31 inHg, 1026.4 hPa
Clouds: Clear
Visibility: 10 miles, 16 km
2024/05/30 11:53 KBNO 301153Z AUTO 30009KT 10SM CLR 01/M03 A3031 RMK AO2 SLP256 T00061033 10061 20000 51004
KLMT - Klamath Falls, Oregon, USA
Distance from station: SSW 266mi, 428km
Updated: Thu, 30-May-2024 4:53am PDT
Clear
Clear
 Wind from calm
Wind: Calm
Temperature: 34°F, 1°C
Dew Point: 30°F, -1°C
Humidity: 87%
Barometer: 30.27 inHg, 1025.1 hPa
Clouds: Clear
Visibility: 10 miles, 16 km
2024/05/30 11:53 KLMT 301153Z AUTO 00000KT 10SM CLR 01/M01 A3027 RMK AO2 SLP237 T00111011 10083 20000 57005